Time;durP1;ratioP1;P1;durP2;ratioP2;P2;SDS_P1;SDS_P2;PMS_P1;PMS_P2;Temp;Humidity;BMP_temperature;BMP_pressure;BME280_temperature;BME280_humidity;BME280_pressure;Samples;Min_cycle;Max_cycle;Signal;HPM_P1;HPM_P2
2023/01/16 05:00:56;;;;;;;3.40;1.93;;;3.50;99.90;;;;;;5773192;23;21012;-73
2023/01/16 05:03:23;;;;;;;2.47;1.57;;;3.40;99.90;;;;;;4967484;28;20463;-73
2023/01/16 05:05:50;;;;;;;5.20;2.33;;;3.40;99.90;;;;;;4967532;28;20480;-73
2023/01/16 05:08:17;;;;;;;2.43;1.67;;;3.40;99.90;;;;;;4967263;28;20452;-73
2023/01/16 05:10:43;;;;;;;1.83;1.40;;;3.40;99.90;;;;;;4963104;28;20477;-73
2023/01/16 05:13:10;;;;;;;3.57;2.43;;;3.40;99.90;;;;;;4948219;28;20472;-73
2023/01/16 05:15:37;;;;;;;1.57;1.43;;;3.40;99.90;;;;;;4947824;28;21411;-73
2023/01/16 05:18:05;;;;;;;4.10;1.93;;;3.40;99.90;;;;;;4946702;28;20820;-73
2023/01/16 05:20:32;;;;;;;5.20;2.50;;;3.40;99.90;;;;;;4947915;28;20468;-73
2023/01/16 05:22:59;;;;;;;2.30;1.97;;;3.40;99.90;;;;;;4948305;28;20485;-73
2023/01/16 05:25:25;;;;;;;3.87;2.00;;;3.40;99.90;;;;;;4947683;28;21106;-73
2023/01/16 05:27:52;;;;;;;2.53;2.00;;;3.30;99.90;;;;;;4945657;28;21013;-73
2023/01/16 05:30:19;;;;;;;6.70;1.97;;;3.30;99.90;;;;;;4947761;28;20945;-73
2023/01/16 05:32:46;;;;;;;2.40;1.70;;;3.30;99.90;;;;;;4947582;28;20461;-73
2023/01/16 05:35:16;;;;;;;2.73;1.90;;;3.30;99.90;;;;;;4947408;28;20822;-73
2023/01/16 05:37:43;;;;;;;1.93;1.73;;;3.30;99.90;;;;;;4947246;28;20489;-73
2023/01/16 05:40:11;;;;;;;3.17;1.77;;;3.30;99.90;;;;;;4947631;28;21149;-73
2023/01/16 05:42:38;;;;;;;2.80;1.60;;;3.30;99.90;;;;;;4947351;28;20465;-73
2023/01/16 05:45:07;;;;;;;1.60;1.50;;;3.30;99.90;;;;;;4947509;28;20464;-73
2023/01/16 05:47:34;;;;;;;9.07;1.80;;;3.30;99.90;;;;;;4946749;28;20885;-73
2023/01/16 05:50:01;;;;;;;7.30;1.67;;;3.30;99.90;;;;;;4947893;28;20462;-73
2023/01/16 05:52:29;;;;;;;4.17;1.60;;;3.30;99.90;;;;;;4947544;28;20487;-73
2023/01/16 05:54:57;;;;;;;6.03;2.23;;;3.20;99.90;;;;;;4947513;28;20470;-73
2023/01/16 05:57:25;;;;;;;4.07;1.70;;;3.20;99.90;;;;;;4946971;28;20495;-73
2023/01/16 05:59:52;;;;;;;2.40;2.10;;;3.20;99.90;;;;;;4947199;28;20557;-73
2023/01/16 06:02:20;;;;;;;4.20;1.70;;;3.20;99.90;;;;;;4946842;28;20485;-68
2023/01/16 06:04:47;;;;;;;3.90;1.80;;;3.20;99.90;;;;;;4947463;28;20464;-68
2023/01/16 06:07:14;;;;;;;3.17;1.60;;;3.20;99.90;;;;;;4946847;28;20445;-68
2023/01/16 06:09:42;;;;;;;9.80;2.70;;;3.20;99.90;;;;;;4950244;28;20464;-68
2023/01/16 06:12:15;;;;;;;2.00;1.50;;;3.20;99.90;;;;;;4950934;28;20477;-68
2023/01/16 06:14:42;;;;;;;3.77;1.70;;;3.20;99.90;;;;;;4950866;28;20442;-68
2023/01/16 06:17:08;;;;;;;1.43;1.30;;;3.20;99.90;;;;;;4950241;28;20511;-68
2023/01/16 06:19:35;;;;;;;2.70;1.50;;;3.20;99.90;;;;;;4950630;28;20840;-68
2023/01/16 06:22:02;;;;;;;2.47;1.60;;;3.20;99.90;;;;;;4950571;28;20473;-68
2023/01/16 06:24:29;;;;;;;5.30;1.97;;;3.20;99.90;;;;;;4950474;28;20456;-68
2023/01/16 06:26:57;;;;;;;1.70;1.50;;;3.20;99.90;;;;;;4950153;28;20449;-68
2023/01/16 06:29:24;;;;;;;8.10;1.80;;;3.20;99.90;;;;;;4950729;28;20464;-68
2023/01/16 06:31:51;;;;;;;2.93;1.40;;;3.10;99.90;;;;;;4950730;28;20477;-68
2023/01/16 06:34:18;;;;;;;3.23;1.90;;;3.10;99.90;;;;;;4950634;28;20452;-67
2023/01/16 06:36:47;;;;;;;3.87;1.50;;;3.10;99.90;;;;;;4949821;28;20499;-65
2023/01/16 06:39:14;;;;;;;3.07;1.80;;;3.10;99.90;;;;;;4950616;28;20461;-68
2023/01/16 06:41:41;;;;;;;4.77;1.77;;;3.10;99.90;;;;;;4950109;28;21024;-68
2023/01/16 06:44:10;;;;;;;5.03;1.53;;;3.10;99.90;;;;;;4950432;28;20461;-68
2023/01/16 06:46:37;;;;;;;2.97;1.83;;;3.00;99.90;;;;;;4949394;28;21022;-68
2023/01/16 06:49:04;;;;;;;2.87;1.43;;;3.00;99.90;;;;;;4950445;28;20445;-67
2023/01/16 06:51:31;;;;;;;1.50;1.40;;;3.00;99.90;;;;;;4949912;28;20926;-67
2023/01/16 06:53:57;;;;;;;6.17;1.90;;;3.00;99.90;;;;;;4949905;28;20492;-67
2023/01/16 06:56:24;;;;;;;2.90;1.70;;;3.00;99.90;;;;;;4949641;28;20457;-67
2023/01/16 06:58:51;;;;;;;1.77;1.43;;;3.00;99.90;;;;;;4950412;28;20449;-67
2023/01/16 07:01:19;;;;;;;2.20;1.57;;;3.10;99.90;;;;;;4950098;28;20491;-68
2023/01/16 07:03:46;;;;;;;2.10;1.23;;;3.10;99.90;;;;;;4950215;28;20461;-68
2023/01/16 07:06:13;;;;;;;1.57;1.47;;;3.20;99.90;;;;;;4949575;28;20459;-68
2023/01/16 07:08:40;;;;;;;2.63;1.60;;;3.20;99.90;;;;;;4949911;28;20492;-68
2023/01/16 07:11:07;;;;;;;2.37;1.67;;;3.20;99.90;;;;;;4949504;28;20849;-67
2023/01/16 07:13:34;;;;;;;2.53;1.50;;;3.20;99.90;;;;;;4950049;28;20457;-68
2023/01/16 07:24:18;;;;;;;1.67;1.57;;;3.30;99.90;;;;;;4949469;29;20424;-67
2023/01/16 07:26:51;;;;;;;3.03;1.70;;;3.30;99.90;;;;;;4949120;28;20449;-68
2023/01/16 07:29:18;;;;;;;3.23;1.63;;;3.30;99.90;;;;;;4952283;28;20437;-68
2023/01/16 07:31:46;;;;;;;1.63;1.53;;;3.40;99.90;;;;;;4958600;28;20478;-68
2023/01/16 07:34:14;;;;;;;3.60;1.70;;;3.40;99.90;;;;;;4957639;28;20462;-68
2023/01/16 07:36:41;;;;;;;2.50;1.40;;;3.40;99.90;;;;;;4958070;28;20459;-68
2023/01/16 07:39:07;;;;;;;3.10;1.47;;;3.40;99.90;;;;;;4959135;28;20484;-68
2023/01/16 07:41:34;;;;;;;2.40;1.93;;;3.40;99.90;;;;;;4958141;28;20469;-68
2023/01/16 07:44:01;;;;;;;5.70;2.10;;;3.50;99.90;;;;;;4968580;28;20456;-68
2023/01/16 07:46:28;;;;;;;2.73;1.90;;;3.50;99.90;;;;;;4967786;28;20467;-67
2023/01/16 07:48:56;;;;;;;4.40;2.33;;;3.50;99.90;;;;;;4969033;28;20457;-67
2023/01/16 07:51:24;;;;;;;3.40;2.27;;;3.60;99.90;;;;;;4968421;28;20579;-67
2023/01/16 07:53:51;;;;;;;2.47;1.90;;;3.60;99.90;;;;;;4967943;28;20457;-67
2023/01/16 07:56:18;;;;;;;7.90;2.07;;;3.60;99.90;;;;;;4967495;28;20631;-68
2023/01/16 07:58:45;;;;;;;3.30;1.63;;;3.60;99.90;;;;;;4968176;28;21215;-68
2023/01/16 08:01:12;;;;;;;2.93;1.90;;;3.60;99.90;;;;;;4967872;28;20496;-68
2023/01/16 08:03:39;;;;;;;2.70;1.97;;;3.70;99.90;;;;;;4968222;28;20452;-68
2023/01/16 08:06:08;;;;;;;6.73;2.00;;;3.70;99.90;;;;;;4967607;28;20544;-68
2023/01/16 08:08:36;;;;;;;4.00;1.83;;;3.70;99.90;;;;;;4967058;28;20449;-68
2023/01/16 08:11:35;;;;;;;2.67;1.87;;;3.80;99.90;;;;;;4968207;28;20483;-68
2023/01/16 08:13:51;;;;;;;3.07;2.13;;;3.80;99.90;;;;;;4967847;28;20544;-68
2023/01/16 08:16:18;;;;;;;4.60;1.50;;;3.80;99.90;;;;;;4967169;28;20464;-68
2023/01/16 08:18:48;;;;;;;2.43;1.43;;;3.80;99.90;;;;;;4968075;28;20495;-68
2023/01/16 08:21:15;;;;;;;3.03;1.90;;;3.80;99.90;;;;;;4968015;28;20484;-68
2023/01/16 08:23:44;;;;;;;1.90;1.63;;;3.90;99.90;;;;;;4968371;28;20464;-68
2023/01/16 08:26:11;;;;;;;4.90;1.83;;;3.90;99.90;;;;;;4967059;28;20467;-68
2023/01/16 08:28:38;;;;;;;2.40;2.20;;;3.90;99.90;;;;;;4967805;28;20456;-68
2023/01/16 08:31:07;;;;;;;1.50;1.40;;;3.90;99.90;;;;;;4961813;28;20488;-68
2023/01/16 08:33:35;;;;;;;3.37;2.07;;;3.90;99.90;;;;;;4948217;28;20463;-68
2023/01/16 08:36:02;;;;;;;2.33;1.90;;;3.90;99.90;;;;;;4947831;28;20457;-68
2023/01/16 08:38:29;;;;;;;2.00;1.83;;;4.00;99.90;;;;;;4947784;28;20497;-68
2023/01/16 08:40:57;;;;;;;2.03;1.50;;;4.10;99.90;;;;;;4948409;28;20487;-68
2023/01/16 08:51:48;;;;;;;1.37;1.27;;;4.10;99.90;;;;;;4947818;28;20524;-68
2023/01/16 08:54:15;;;;;;;2.07;1.43;;;4.10;99.90;;;;;;4948043;28;20458;-68
2023/01/16 08:56:43;;;;;;;1.60;1.50;;;4.10;99.90;;;;;;4947586;28;20453;-67
2023/01/16 08:59:10;;;;;;;2.30;1.40;;;4.20;99.90;;;;;;4948047;28;20497;-67
2023/01/16 09:01:37;;;;;;;2.57;1.60;;;4.20;99.90;;;;;;4947491;28;21000;-67
2023/01/16 09:04:04;;;;;;;1.50;1.40;;;4.20;99.90;;;;;;4948025;28;20458;-68
2023/01/16 09:06:30;;;;;;;1.43;1.33;;;4.20;99.90;;;;;;4947452;28;20460;-67
2023/01/16 09:08:57;;;;;;;2.33;1.20;;;4.20;99.90;;;;;;4947873;28;20454;-67
2023/01/16 09:14:10;;;;;;;5.43;1.40;;;4.30;99.90;;;;;;4947875;29;20440;-67
2023/01/16 09:16:36;;;;;;;4.97;2.57;;;4.40;99.90;;;;;;4947001;28;20789;-67
2023/01/16 09:19:03;;;;;;;3.47;1.57;;;4.40;99.90;;;;;;4947916;28;20880;-67
2023/01/16 09:21:30;;;;;;;2.40;1.20;;;4.40;99.90;;;;;;4947711;28;20540;-67
2023/01/16 09:23:57;;;;;;;1.50;1.40;;;4.50;99.90;;;;;;4948099;28;20461;-67
2023/01/16 09:26:24;;;;;;;1.30;1.20;;;4.50;99.90;;;;;;4946848;28;20462;-67
2023/01/16 09:28:51;;;;;;;1.63;1.40;;;4.50;99.90;;;;;;4947518;28;20448;-67
2023/01/16 09:31:19;;;;;;;2.13;1.37;;;4.60;99.90;;;;;;4947456;28;20484;-67
2023/01/16 09:33:47;;;;;;;1.40;1.30;;;4.60;99.90;;;;;;4947545;28;20898;-67
2023/01/16 09:36:13;;;;;;;1.80;1.20;;;4.60;99.90;;;;;;4946812;28;20453;-67
2023/01/16 09:38:40;;;;;;;1.77;1.40;;;4.70;99.90;;;;;;4947513;28;20508;-67
2023/01/16 09:43:35;;;;;;;1.40;1.27;;;4.70;99.90;;;;;;4947286;28;20478;-67
2023/01/16 09:44:04;;;;;;;1.60;1.10;;;4.70;99.90;;;;;;4951044;29;21377;-68
2023/01/16 09:46:37;;;;;;;2.20;2.00;;;4.80;99.90;;;;;;4950435;28;20836;-68
2023/01/16 09:49:08;;;;;;;2.30;1.70;;;4.80;99.90;;;;;;4951931;28;20442;-68
2023/01/16 09:51:40;;;;;;;2.20;2.00;;;4.80;99.90;;;;;;4951145;28;20477;-67
2023/01/16 09:59:46;;;;;;;1.43;1.20;;;4.80;99.90;;;;;;4951113;29;20968;-68
2023/01/16 10:02:22;;;;;;;1.20;1.10;;;4.80;99.90;;;;;;4950919;28;20485;-68
2023/01/16 10:04:50;;;;;;;3.20;1.17;;;5.00;99.90;;;;;;4951022;28;20449;-67
2023/01/16 10:07:31;;;;;;;1.27;1.10;;;5.00;99.90;;;;;;4950805;28;20456;-67
2023/01/16 10:10:06;;;;;;;2.50;1.00;;;5.00;99.90;;;;;;4950881;28;20452;-67
2023/01/16 10:12:35;;;;;;;1.20;1.10;;;5.00;99.90;;;;;;4951356;28;20485;-67
2023/01/16 10:15:15;;;;;;;1.33;1.20;;;5.10;99.90;;;;;;4950846;28;20469;-67
2023/01/16 10:17:54;;;;;;;1.20;1.13;;;5.10;99.90;;;;;;4949983;28;20485;-67
2023/01/16 10:20:36;;;;;;;1.10;1.00;;;5.20;99.90;;;;;;4950815;28;20804;-67
2023/01/16 10:23:14;;;;;;;1.33;1.23;;;5.30;99.90;;;;;;4951084;28;20808;-67
2023/01/16 10:25:47;;;;;;;1.17;1.00;;;5.30;99.90;;;;;;4950664;28;20453;-67
2023/01/16 10:28:29;;;;;;;2.65;1.10;;;5.30;99.90;;;;;;4949468;28;20447;-67
2023/01/16 10:31:01;;;;;;;3.53;1.10;;;5.40;99.90;;;;;;4950697;28;20234;-67
2023/01/16 10:33:35;;;;;;;2.00;1.23;;;5.40;99.90;;;;;;4950570;28;20433;-67
2023/01/16 10:36:04;;;;;;;1.00;1.00;;;5.50;99.90;;;;;;4950135;28;20460;-67
2023/01/16 10:38:43;;;;;;;1.10;1.10;;;5.40;99.90;;;;;;4950459;28;20501;-67
2023/01/16 10:49:28;;;;;;;1.00;1.00;;;5.50;99.90;;;;;;4950279;29;20417;-66
2023/01/16 10:51:57;;;;;;;1.10;1.10;;;5.50;99.90;;;;;;4949767;28;20491;-67
2023/01/16 10:54:25;;;;;;;3.83;1.27;;;5.40;99.90;;;;;;4949853;28;20464;-67
2023/01/16 10:56:52;;;;;;;0.90;0.90;;;5.50;99.90;;;;;;4949834;28;20480;-67
2023/01/16 10:59:20;;;;;;;1.03;0.97;;;5.50;99.90;;;;;;4950414;28;20503;-67
2023/01/16 11:01:49;;;;;;;1.23;1.13;;;5.50;99.90;;;;;;4949963;28;20485;-67
2023/01/16 11:04:19;;;;;;;1.87;1.30;;;5.50;99.90;;;;;;4949758;28;20453;-67
2023/01/16 11:06:47;;;;;;;1.00;1.00;;;5.60;99.90;;;;;;4949224;28;20786;-67
2023/01/16 11:09:19;;;;;;;0.97;0.93;;;5.60;99.90;;;;;;4949632;28;20553;-67
2023/01/16 11:20:17;;;;;;;1.23;1.00;;;5.70;99.90;;;;;;4949720;29;20424;-67
2023/01/16 11:22:49;;;;;;;1.57;0.90;;;5.70;99.90;;;;;;4949934;28;20469;-68
2023/01/16 11:25:20;;;;;;;1.30;1.10;;;5.70;99.90;;;;;;4949249;28;20956;-67
2023/01/16 11:27:49;;;;;;;1.63;0.93;;;5.80;99.90;;;;;;4948588;28;20449;-67
2023/01/16 11:30:20;;;;;;;1.13;0.90;;;5.80;99.90;;;;;;4949667;28;20449;-69
2023/01/16 11:32:49;;;;;;;1.23;0.97;;;5.80;99.90;;;;;;4949572;28;20472;-70
2023/01/16 11:35:18;;;;;;;3.73;1.10;;;5.90;99.90;;;;;;4949538;28;20464;-69
2023/01/16 11:37:50;;;;;;;1.10;0.80;;;5.90;99.90;;;;;;4948473;28;20461;-70
2023/01/16 11:40:21;;;;;;;1.47;1.37;;;6.00;99.90;;;;;;4949591;28;20450;-68
2023/01/16 11:48:26;;;;;;;1.57;1.20;;;6.10;99.90;;;;;;4948945;28;20484;-68
2023/01/16 11:50:54;;;;;;;0.77;0.77;;;6.00;99.90;;;;;;4950163;28;20491;-68
2023/01/16 11:53:23;;;;;;;1.80;1.17;;;6.00;99.90;;;;;;4949729;28;20449;-70
2023/01/16 11:56:10;;;;;;;2.30;1.00;;;6.00;99.90;;;;;;4949565;28;20472;-68
2023/01/16 11:58:47;;;;;;;1.77;1.07;;;6.10;99.90;;;;;;4949222;28;20694;-68
2023/01/16 12:01:19;;;;;;;0.90;0.90;;;6.10;99.90;;;;;;4948899;28;20489;-68
2023/01/16 12:04:02;;;;;;;1.77;1.50;;;6.10;99.90;;;;;;4949408;28;20457;-68
2023/01/16 12:06:41;;;;;;;1.30;1.20;;;6.20;99.90;;;;;;4948195;28;20540;-68
2023/01/16 12:09:26;;;;;;;1.37;1.27;;;6.20;99.90;;;;;;4949077;28;20457;-68
2023/01/16 12:15:01;;;;;;;1.10;0.90;;;6.10;99.90;;;;;;4948901;29;20428;-68
2023/01/16 12:17:39;;;;;;;0.90;0.90;;;6.10;99.90;;;;;;4948216;28;20474;-68
2023/01/16 12:20:29;;;;;;;3.50;1.00;;;6.10;99.90;;;;;;4948799;28;20500;-68
2023/01/16 12:23:12;;;;;;;1.60;1.50;;;6.20;99.90;;;;;;4948925;28;20879;-68
2023/01/16 12:25:53;;;;;;;1.83;1.37;;;6.20;99.90;;;;;;4948856;28;20477;-68
2023/01/16 12:28:30;;;;;;;1.00;1.00;;;6.30;99.90;;;;;;4948561;28;20972;-68
2023/01/16 12:31:20;;;;;;;1.03;0.93;;;6.30;99.90;;;;;;4948462;28;20489;-68
2023/01/16 12:33:55;;;;;;;1.10;1.00;;;6.30;99.90;;;;;;4948577;28;20445;-68
2023/01/16 12:36:34;;;;;;;1.37;1.27;;;6.40;99.90;;;;;;4948057;28;20441;-68
2023/01/16 12:39:10;;;;;;;1.00;1.00;;;6.40;99.90;;;;;;4948010;28;21053;-68
2023/01/16 12:44:42;;;;;;;1.17;1.07;;;6.40;99.90;;;;;;4947424;29;20568;-68
2023/01/16 12:47:33;;;;;;;2.00;1.20;;;6.50;99.90;;;;;;4947163;28;20445;-68
2023/01/16 12:50:10;;;;;;;0.90;0.90;;;6.50;99.90;;;;;;4945528;28;20469;-68
2023/01/16 12:52:57;;;;;;;0.90;0.90;;;6.50;99.90;;;;;;4946756;28;20477;-68
2023/01/16 12:55:38;;;;;;;1.53;0.97;;;6.50;99.90;;;;;;4947344;28;20441;-68
2023/01/16 12:58:12;;;;;;;1.10;1.00;;;6.60;99.90;;;;;;4946206;28;20461;-68
2023/01/16 13:00:43;;;;;;;3.17;0.80;;;6.60;99.90;;;;;;4947002;28;20544;-67
2023/01/16 13:03:18;;;;;;;1.00;1.00;;;6.60;99.90;;;;;;4946966;28;20433;-68
2023/01/16 13:05:46;;;;;;;1.50;1.23;;;6.70;99.90;;;;;;4947136;28;21001;-68
2023/01/16 13:08:20;;;;;;;1.30;0.80;;;6.70;99.90;;;;;;4946257;28;20449;-68
2023/01/16 13:13:43;;;;;;;1.90;1.00;;;6.80;99.90;;;;;;4946446;29;20436;-68
2023/01/16 13:16:15;;;;;;;1.37;1.10;;;6.80;99.90;;;;;;4946347;28;20434;-68
2023/01/16 13:18:46;;;;;;;1.00;1.00;;;6.80;99.90;;;;;;4946513;28;21039;-68
2023/01/16 13:21:17;;;;;;;1.10;1.00;;;6.90;99.90;;;;;;4946556;28;20923;-68
2023/01/16 13:23:48;;;;;;;1.73;0.83;;;6.90;99.90;;;;;;4946126;28;20458;-67
2023/01/16 13:26:17;;;;;;;1.57;1.30;;;7.00;99.90;;;;;;4946294;28;20438;-68
2023/01/16 13:28:52;;;;;;;1.03;1.00;;;7.00;99.90;;;;;;4946343;28;20449;-68
2023/01/16 13:31:28;;;;;;;1.43;1.07;;;7.00;99.90;;;;;;4947264;28;20563;-68
2023/01/16 13:33:59;;;;;;;1.13;1.03;;;7.00;99.90;;;;;;4947974;28;20444;-68
2023/01/16 13:37:00;;;;;;;1.10;1.00;;;7.00;99.90;;;;;;4946454;28;20452;-68
2023/01/16 13:39:58;;;;;;;0.97;0.97;;;7.10;99.90;;;;;;4947098;28;20501;-68
2023/01/16 13:42:28;;;;;;;1.97;1.10;;;7.10;99.90;;;;;;4947010;28;20484;-68
2023/01/16 13:47:45;;;;;;;1.00;1.00;;;7.10;99.90;;;;;;4946492;29;20532;-68
2023/01/16 13:50:22;;;;;;;1.37;1.27;;;7.10;99.90;;;;;;4947483;28;20460;-67
2023/01/16 13:52:49;;;;;;;0.97;0.97;;;7.20;99.90;;;;;;4947575;28;20444;-69
2023/01/16 13:55:28;;;;;;;0.90;0.90;;;7.20;99.90;;;;;;4947087;28;20457;-67
2023/01/16 13:57:56;;;;;;;0.80;0.80;;;7.20;99.90;;;;;;4946934;28;20457;-67
2023/01/16 14:00:25;;;;;;;0.90;0.90;;;7.30;99.90;;;;;;4946846;28;21125;-67
2023/01/16 14:03:17;;;;;;;1.00;0.90;;;7.40;99.90;;;;;;4947318;28;20473;-68
2023/01/16 14:05:47;;;;;;;1.33;1.00;;;7.50;99.90;;;;;;4947738;28;21102;-68
2023/01/16 14:09:07;;;;;;;1.20;1.10;;;7.50;99.90;;;;;;4947205;28;20452;-68
2023/01/16 14:11:39;;;;;;;1.20;1.07;;;7.50;99.90;;;;;;4947259;28;20549;-68
2023/01/16 14:17:08;;;;;;;1.17;1.00;;;7.60;99.90;;;;;;4946076;28;20492;-68
2023/01/16 14:19:37;;;;;;;1.13;0.97;;;7.50;99.90;;;;;;4947438;28;20481;-68
2023/01/16 14:24:48;;;;;;;0.97;0.97;;;7.50;99.90;;;;;;4946719;29;20468;-68
2023/01/16 14:27:17;;;;;;;1.40;1.00;;;7.50;99.90;;;;;;4946375;28;20550;-68
2023/01/16 14:29:52;;;;;;;1.20;1.10;;;7.50;99.90;;;;;;4950116;28;20476;-68
2023/01/16 14:32:24;;;;;;;2.30;1.50;;;7.40;99.90;;;;;;4950514;28;20553;-68
2023/01/16 14:34:55;;;;;;;2.90;1.60;;;7.40;99.90;;;;;;4950561;28;20441;-68
2023/01/16 14:37:25;;;;;;;1.10;1.00;;;7.40;99.90;;;;;;4950120;28;20446;-68
2023/01/16 14:39:55;;;;;;;1.30;1.20;;;7.40;99.90;;;;;;4950742;28;20539;-68
2023/01/16 14:57:00;;;;;;;1.10;1.00;;;7.30;99.90;;;;;;4949460;29;20821;-68
2023/01/16 14:59:31;;;;;;;0.83;0.83;;;7.30;99.90;;;;;;4950212;28;20497;-68
2023/01/16 15:02:19;;;;;;;1.30;1.17;;;7.30;99.90;;;;;;4949857;28;20492;-68
2023/01/16 15:04:54;;;;;;;0.97;0.97;;;7.30;99.90;;;;;;4950329;28;20468;-68
2023/01/16 15:07:29;;;;;;;1.20;1.10;;;7.30;99.90;;;;;;4949183;28;20462;-68
2023/01/16 15:10:00;;;;;;;1.00;0.90;;;7.40;99.90;;;;;;4950058;28;20444;-68
2023/01/16 15:12:38;;;;;;;4.40;2.60;;;7.40;99.90;;;;;;4949910;28;20470;-68
2023/01/16 15:15:06;;;;;;;3.70;2.20;;;7.40;99.90;;;;;;4950000;28;20452;-68
2023/01/16 15:23:21;;;;;;;0.90;0.90;;;7.40;99.90;;;;;;4949529;29;20520;-68
2023/01/16 15:26:02;;;;;;;2.40;1.30;;;7.30;99.90;;;;;;4949678;28;20457;-68
2023/01/16 15:28:40;;;;;;;1.17;1.10;;;7.30;99.90;;;;;;4948344;28;20977;-68
2023/01/16 15:31:10;;;;;;;3.03;1.67;;;7.30;99.90;;;;;;4949153;28;20481;-68
2023/01/16 15:33:47;;;;;;;1.30;1.10;;;7.20;99.90;;;;;;4950037;28;20551;-68
2023/01/16 15:36:22;;;;;;;1.20;1.10;;;7.10;99.90;;;;;;4948721;28;20503;-68
2023/01/16 15:38:50;;;;;;;1.40;1.30;;;7.00;99.90;;;;;;4949429;28;20451;-67
2023/01/16 15:46:32;;;;;;;1.40;1.30;;;6.90;99.90;;;;;;4948877;28;20481;-67
2023/01/16 15:47:22;;;;;;;4.27;2.60;;;6.90;99.90;;;;;;4948592;29;20456;-68
2023/01/16 15:49:57;;;;;;;1.50;1.33;;;6.90;99.90;;;;;;4948986;28;20460;-68
2023/01/16 15:52:29;;;;;;;3.57;1.63;;;6.80;99.90;;;;;;4948994;28;20479;-68
2023/01/16 15:54:57;;;;;;;2.20;2.00;;;6.80;99.90;;;;;;4949437;28;20441;-68
2023/01/16 15:57:27;;;;;;;2.23;1.93;;;6.80;99.90;;;;;;4948543;28;20457;-68
2023/01/16 15:59:55;;;;;;;2.40;2.20;;;6.70;99.90;;;;;;4949246;28;21044;-67
2023/01/16 16:02:24;;;;;;;3.57;1.47;;;6.80;99.90;;;;;;4948954;28;20484;-68
2023/01/16 16:04:53;;;;;;;1.43;1.17;;;6.70;99.90;;;;;;4949174;28;20458;-68
2023/01/16 16:07:21;;;;;;;1.30;1.20;;;6.70;99.90;;;;;;4948036;28;20493;-68
2023/01/16 16:09:51;;;;;;;2.40;1.40;;;6.70;99.90;;;;;;4948896;28;20463;-68
2023/01/16 16:12:19;;;;;;;1.30;1.20;;;6.70;99.90;;;;;;4948969;28;20861;-68
2023/01/16 16:20:33;;;;;;;1.33;1.23;;;6.50;99.90;;;;;;4948545;28;20504;-68
2023/01/16 16:23:04;;;;;;;1.23;1.13;;;6.50;99.90;;;;;;4948650;28;20964;-68
2023/01/16 16:25:35;;;;;;;2.30;1.20;;;6.50;99.90;;;;;;4948614;28;20937;-73
2023/01/16 16:28:05;;;;;;;1.50;1.40;;;6.40;99.90;;;;;;4948082;28;20496;-75
2023/01/16 16:30:32;;;;;;;2.20;1.30;;;6.40;99.90;;;;;;4948521;28;20458;-74
2023/01/16 16:33:00;;;;;;;1.30;1.20;;;6.40;99.90;;;;;;4948294;28;20460;-76
2023/01/16 16:35:32;;;;;;;1.17;1.07;;;6.30;99.90;;;;;;4948223;28;20461;-74
2023/01/16 16:37:59;;;;;;;1.63;1.20;;;6.30;99.90;;;;;;4946740;28;20834;-75
2023/01/16 16:40:26;;;;;;;1.30;1.20;;;6.20;99.90;;;;;;4947523;28;20508;-75
2023/01/16 16:42:56;;;;;;;1.27;1.17;;;6.20;99.90;;;;;;4947900;28;20453;-75
2023/01/16 16:45:27;;;;;;;1.30;1.20;;;6.20;99.90;;;;;;4947828;28;20469;-75
2023/01/16 16:48:28;;;;;;;2.03;1.03;;;6.20;99.90;;;;;;4947218;28;20476;-73
2023/01/16 16:51:18;;;;;;;1.20;1.10;;;6.10;99.90;;;;;;4944402;28;21207;-74
2023/01/16 16:53:46;;;;;;;1.50;1.10;;;6.10;99.90;;;;;;4948216;28;20441;-74
2023/01/16 16:56:16;;;;;;;1.30;1.20;;;6.00;99.90;;;;;;4947105;28;20457;-75
2023/01/16 16:58:46;;;;;;;1.70;1.60;;;5.90;99.90;;;;;;4948118;28;20457;-74
2023/01/16 17:01:14;;;;;;;1.43;1.33;;;5.80;99.90;;;;;;4947780;28;20505;-75
2023/01/16 17:03:42;;;;;;;1.03;1.00;;;5.90;99.90;;;;;;4947850;28;20836;-73
2023/01/16 17:06:13;;;;;;;1.20;1.10;;;5.80;99.90;;;;;;4945500;28;21255;-73
2023/01/16 17:08:40;;;;;;;1.17;1.17;;;5.80;99.90;;;;;;4947167;28;20434;-73
2023/01/16 17:11:12;;;;;;;1.50;1.40;;;5.80;99.90;;;;;;4946551;28;20476;-74
2023/01/16 17:13:38;;;;;;;1.40;1.30;;;5.70;99.90;;;;;;4946666;28;20465;-73
2023/01/16 17:16:15;;;;;;;1.20;1.10;;;5.70;99.90;;;;;;4945766;28;20452;-74
2023/01/16 17:18:41;;;;;;;2.40;1.77;;;5.70;99.90;;;;;;4946372;28;20457;-73
2023/01/16 17:21:12;;;;;;;1.57;1.43;;;5.60;99.90;;;;;;4946930;28;20505;-73
2023/01/16 17:23:39;;;;;;;1.50;1.30;;;5.60;99.90;;;;;;4946358;28;20524;-74
2023/01/16 17:26:07;;;;;;;2.60;1.50;;;5.60;99.90;;;;;;4946185;28;20467;-74
2023/01/16 17:28:33;;;;;;;1.33;1.23;;;5.60;99.90;;;;;;4946687;28;20467;-74
2023/01/16 17:31:00;;;;;;;1.57;1.40;;;5.60;99.90;;;;;;4946423;28;20476;-74
2023/01/16 17:33:30;;;;;;;1.30;1.23;;;5.60;99.90;;;;;;4946647;28;20461;-74
2023/01/16 17:36:09;;;;;;;1.60;1.40;;;5.50;99.90;;;;;;4945865;28;20513;-74
2023/01/16 17:38:37;;;;;;;1.47;1.37;;;5.50;99.90;;;;;;4946764;28;20922;-74
2023/01/16 17:41:04;;;;;;;1.70;1.47;;;5.50;99.90;;;;;;4946667;28;20584;-74
2023/01/16 17:46:17;;;;;;;2.30;1.93;;;5.40;99.90;;;;;;4946074;29;20528;-74
2023/01/16 17:48:45;;;;;;;1.20;1.20;;;5.40;99.90;;;;;;4946670;28;20458;-74
2023/01/16 17:51:11;;;;;;;1.23;1.23;;;5.40;99.90;;;;;;4946977;28;21004;-74
2023/01/16 17:53:41;;;;;;;1.70;1.33;;;5.40;99.90;;;;;;4946720;28;20479;-74
2023/01/16 17:56:07;;;;;;;1.50;1.40;;;5.40;99.90;;;;;;4946274;28;20838;-74
2023/01/16 17:58:48;;;;;;;1.90;1.13;;;5.40;99.90;;;;;;4947239;28;20468;-74
2023/01/16 18:01:17;;;;;;;1.23;1.13;;;5.30;99.90;;;;;;4946956;28;20501;-74
2023/01/16 18:03:51;;;;;;;1.30;1.20;;;5.30;99.90;;;;;;4949020;28;20468;-74
2023/01/16 18:06:18;;;;;;;0.93;0.93;;;5.30;99.90;;;;;;4950483;28;21229;-74
2023/01/16 18:08:48;;;;;;;1.20;1.10;;;5.30;99.90;;;;;;4950923;28;20457;-74
2023/01/16 18:19:29;;;;;;;1.33;1.23;;;5.10;99.90;;;;;;4950646;29;20448;-74
2023/01/16 18:22:01;;;;;;;1.37;1.23;;;5.10;99.90;;;;;;4950503;28;20469;-74
2023/01/16 18:24:29;;;;;;;1.17;1.07;;;5.10;99.90;;;;;;4950885;28;20992;-74
2023/01/16 18:26:55;;;;;;;2.53;1.70;;;5.10;99.90;;;;;;4950014;28;20957;-74
2023/01/16 18:29:22;;;;;;;1.30;1.20;;;5.00;99.90;;;;;;4949581;28;20449;-74
2023/01/16 18:34:31;;;;;;;1.10;1.10;;;5.10;99.90;;;;;;4944731;28;21023;-74
2023/01/16 18:36:58;;;;;;;1.50;1.30;;;5.10;99.90;;;;;;4949037;28;20459;-74
2023/01/16 19:04:12;;;;;;;1.00;1.00;;;5.00;99.90;;;;;;4949242;29;20444;-74
2023/01/16 19:06:41;;;;;;;1.23;1.13;;;5.00;99.90;;;;;;4948319;28;20453;-74
2023/01/16 19:09:08;;;;;;;1.37;1.10;;;5.00;99.90;;;;;;4949177;28;20463;-74
2023/01/16 19:11:35;;;;;;;2.20;1.30;;;5.00;99.90;;;;;;4949250;28;20851;-74
2023/01/16 19:14:02;;;;;;;1.20;1.20;;;5.00;99.90;;;;;;4948904;28;20461;-73
2023/01/16 19:16:44;;;;;;;1.07;1.07;;;5.00;99.90;;;;;;4948991;28;20461;-73
2023/01/16 19:19:12;;;;;;;1.40;1.30;;;5.00;99.90;;;;;;4949649;28;20449;-73
2023/01/16 19:21:40;;;;;;;1.70;1.37;;;5.00;99.90;;;;;;4949282;28;20580;-73
2023/01/16 19:24:09;;;;;;;1.50;1.40;;;5.00;99.90;;;;;;4949653;28;20469;-73
2023/01/16 19:26:40;;;;;;;1.10;1.10;;;5.00;99.90;;;;;;4948986;28;20467;-74
2023/01/16 19:29:07;;;;;;;1.57;1.10;;;5.00;99.90;;;;;;4949331;28;20930;-73
2023/01/16 19:31:34;;;;;;;0.90;0.90;;;5.00;99.90;;;;;;4949326;28;20892;-73
2023/01/16 19:34:01;;;;;;;1.73;1.20;;;5.00;99.90;;;;;;4949450;28;20454;-73
2023/01/16 19:36:28;;;;;;;1.30;1.20;;;5.00;99.90;;;;;;4947811;28;20468;-73
2023/01/16 19:38:56;;;;;;;1.33;1.23;;;5.00;99.90;;;;;;4948264;28;20469;-73
2023/01/16 19:46:52;;;;;;;1.30;1.20;;;4.90;99.90;;;;;;4948329;29;20448;-73
2023/01/16 19:49:19;;;;;;;5.23;1.40;;;4.90;99.90;;;;;;4948387;28;20458;-73
2023/01/16 19:51:46;;;;;;;3.47;1.00;;;4.80;99.90;;;;;;4948561;28;20479;-73
2023/01/16 19:54:14;;;;;;;1.30;1.07;;;4.80;99.90;;;;;;4948953;28;20461;-73
2023/01/16 19:56:41;;;;;;;1.40;1.30;;;4.80;99.90;;;;;;4948489;28;20457;-72
2023/01/16 19:59:09;;;;;;;1.40;1.30;;;4.80;99.90;;;;;;4948478;28;20457;-73
2023/01/16 20:01:37;;;;;;;2.10;1.43;;;4.80;99.90;;;;;;4948053;28;20504;-74
2023/01/16 20:04:04;;;;;;;2.30;1.40;;;4.80;99.90;;;;;;4948261;28;20564;-74
2023/01/16 20:06:31;;;;;;;1.27;1.20;;;4.80;99.90;;;;;;4947673;28;21326;-75
2023/01/16 20:08:58;;;;;;;1.57;1.47;;;4.80;99.90;;;;;;4948277;28;20462;-74
2023/01/16 20:14:07;;;;;;;1.17;1.07;;;4.80;99.90;;;;;;4947980;28;20453;-74
2023/01/16 20:16:34;;;;;;;1.20;1.10;;;4.70;99.90;;;;;;4947216;28;20465;-72
2023/01/16 20:19:00;;;;;;;1.00;1.00;;;4.70;99.90;;;;;;4948301;28;20568;-73
2023/01/16 20:21:27;;;;;;;1.87;1.50;;;4.70;99.90;;;;;;4948381;28;20507;-72
2023/01/16 20:23:56;;;;;;;2.50;1.37;;;4.70;99.90;;;;;;4948371;28;20465;-73
2023/01/16 20:26:23;;;;;;;1.20;1.10;;;4.60;99.90;;;;;;4946576;28;20458;-74
2023/01/16 20:28:51;;;;;;;2.10;1.40;;;4.60;99.90;;;;;;4947311;28;20465;-73
2023/01/16 20:31:19;;;;;;;4.23;1.40;;;4.70;99.90;;;;;;4947792;28;21140;-72
2023/01/16 20:33:46;;;;;;;1.30;1.20;;;4.60;99.90;;;;;;4947980;28;20462;-72
2023/01/16 20:36:13;;;;;;;1.40;1.30;;;4.60;99.90;;;;;;4946820;28;20453;-74